createdAt,value
2022-10-11T00:00:27.833Z,4.39
2022-10-11T00:03:14.727Z,4.41
2022-10-11T00:05:48.887Z,4.40
2022-10-11T00:08:35.713Z,4.38
2022-10-11T00:11:19.708Z,4.36
2022-10-11T00:14:13.715Z,4.36
2022-10-11T00:17:08.730Z,4.36
2022-10-11T00:20:02.712Z,4.37
2022-10-11T00:22:56.720Z,4.39
2022-10-11T00:25:43.730Z,4.41
2022-10-11T00:28:23.750Z,4.42
2022-10-11T00:31:18.720Z,4.49
2022-10-11T00:33:58.733Z,4.52
2022-10-11T00:36:52.720Z,4.51
2022-10-11T00:39:39.719Z,4.53
2022-10-11T00:42:26.738Z,4.55
2022-10-11T00:45:44.712Z,4.61
2022-10-11T00:48:37.717Z,4.66
2022-10-11T00:51:18.827Z,4.62
2022-10-11T00:54:08.733Z,4.59
2022-10-11T00:56:44.879Z,4.59
2022-10-11T00:59:35.750Z,4.59
2022-10-11T01:02:09.812Z,4.56
2022-10-11T01:05:25.154Z,4.54
2022-10-11T01:08:00.722Z,4.54
2022-10-11T01:10:54.741Z,4.47
2022-10-11T01:13:53.726Z,4.42
2022-10-11T01:16:40.814Z,4.37
2022-10-11T01:20:01.739Z,4.36
2022-10-11T01:23:28.749Z,4.36
2022-10-11T01:26:34.745Z,4.31
2022-10-11T01:29:47.756Z,4.30
2022-10-11T01:32:29.826Z,4.29
2022-10-11T01:35:28.744Z,4.25
2022-10-11T01:38:29.811Z,4.26
2022-10-11T01:41:22.775Z,4.24
2022-10-11T01:44:06.734Z,4.27
2022-10-11T01:47:00.730Z,4.29
2022-10-11T01:49:48.779Z,4.26
2022-10-11T01:52:24.800Z,4.22
2022-10-11T01:55:33.762Z,4.19
2022-10-11T01:58:11.813Z,4.18
2022-10-11T02:01:10.848Z,4.15
2022-10-11T02:03:52.848Z,4.11
2022-10-11T02:06:51.769Z,4.06
2022-10-11T02:09:43.763Z,4.07
2022-10-11T02:12:45.758Z,4.04
2022-10-11T02:15:35.774Z,3.99
2022-10-11T02:18:13.847Z,3.97
2022-10-11T02:21:10.766Z,3.94
2022-10-11T02:24:14.802Z,3.95
2022-10-11T02:27:12.781Z,3.96
2022-10-11T02:30:08.777Z,3.91
2022-10-11T02:32:57.788Z,3.90
2022-10-11T02:35:35.827Z,3.91
2022-10-11T02:38:47.752Z,3.93
2022-10-11T02:41:51.777Z,3.94
2022-10-11T02:45:05.757Z,3.99
2022-10-11T02:47:53.777Z,4.01
2022-10-11T02:50:35.779Z,3.99
2022-10-11T02:53:22.790Z,4.01
2022-10-11T02:55:57.858Z,4.06
2022-10-11T02:58:44.772Z,4.03
2022-10-11T03:01:17.916Z,4.01
2022-10-11T03:04:04.775Z,3.98
2022-10-11T03:06:37.916Z,3.96
2022-10-11T03:09:24.785Z,3.97
2022-10-11T03:12:00.865Z,3.97
2022-10-11T03:14:47.793Z,3.98
2022-10-11T03:17:42.826Z,3.98
2022-10-11T03:20:36.785Z,3.95
2022-10-11T03:23:23.785Z,3.96
2022-10-11T03:25:56.946Z,4.00
2022-10-11T03:28:43.875Z,4.04
2022-10-11T03:31:18.564Z,4.08
2022-10-11T03:34:04.783Z,4.11
2022-10-11T03:36:37.909Z,4.11
2022-10-11T03:39:24.802Z,4.06
2022-10-11T03:42:04.791Z,4.04
2022-10-11T03:44:58.803Z,4.03
2022-10-11T03:47:52.804Z,4.01
2022-10-11T03:50:39.788Z,3.96
2022-10-11T03:53:13.952Z,3.98
2022-10-11T03:56:07.364Z,4.03
2022-10-11T03:58:41.898Z,3.97
2022-10-11T04:01:28.860Z,3.96
2022-10-11T04:04:02.887Z,4.01
2022-10-11T04:06:49.823Z,4.03
2022-10-11T04:09:37.787Z,4.02
2022-10-11T04:12:24.804Z,3.98
2022-10-11T04:15:04.789Z,4.00
2022-10-11T04:17:51.836Z,3.98
2022-10-11T04:20:24.900Z,4.01
2022-10-11T04:23:11.810Z,4.04
2022-10-11T04:25:53.811Z,4.03
2022-10-11T04:28:47.851Z,4.06
2022-10-11T04:31:34.817Z,4.12
2022-10-11T04:34:07.914Z,4.15
2022-10-11T04:36:54.816Z,4.18
2022-10-11T04:39:34.837Z,4.18
2022-10-11T04:42:28.818Z,4.17
2022-10-11T04:45:16.828Z,4.16
2022-10-11T04:47:49.941Z,4.13
2022-10-11T04:50:36.825Z,4.11
2022-10-11T04:53:16.819Z,4.12
2022-10-11T04:56:09.371Z,4.15
2022-10-11T04:58:50.842Z,4.16
2022-10-11T05:01:37.892Z,4.16
2022-10-11T05:04:17.825Z,4.20
2022-10-11T05:07:12.812Z,4.23
2022-10-11T05:09:59.830Z,4.28
2022-10-11T05:12:32.888Z,4.31
2022-10-11T05:15:19.829Z,4.39
2022-10-11T05:17:52.926Z,4.47
2022-10-11T05:20:39.842Z,4.53
2022-10-11T05:23:19.837Z,4.59
2022-10-11T05:26:13.826Z,4.65
2022-10-11T05:29:01.925Z,4.67
2022-10-11T05:31:34.959Z,4.71
2022-10-11T05:34:21.837Z,4.73
2022-10-11T05:36:56.568Z,4.79
2022-10-11T05:39:42.829Z,4.82
2022-10-11T05:42:15.961Z,4.86
2022-10-11T05:45:02.856Z,4.92
2022-10-11T05:47:42.826Z,4.97
2022-10-11T05:50:36.851Z,5.00
2022-10-11T05:53:23.819Z,5.07
2022-10-11T05:55:56.994Z,5.15
2022-10-11T05:58:43.858Z,5.19
2022-10-11T06:01:40.953Z,5.25
2022-10-11T06:04:34.857Z,5.30
2022-10-11T06:07:28.858Z,5.33
2022-10-11T06:10:15.849Z,5.36
2022-10-11T06:12:55.830Z,5.39
2022-10-11T06:15:52.853Z,5.46
2022-10-11T06:18:46.853Z,5.48
2022-10-11T06:21:40.866Z,5.51
2022-10-11T06:24:27.870Z,5.55
2022-10-11T06:27:00.981Z,5.59
2022-10-11T06:29:47.877Z,5.61
2022-10-11T06:32:23.924Z,5.63
2022-10-11T06:35:11.879Z,5.67
2022-10-11T06:37:47.920Z,5.71
2022-10-11T06:40:34.874Z,5.75
2022-10-11T06:43:07.928Z,5.80
2022-10-11T06:45:54.845Z,5.85
2022-10-11T06:48:34.875Z,5.87
2022-10-11T06:51:24.866Z,5.90
2022-10-11T06:54:09.894Z,5.92
2022-10-11T06:56:56.859Z,5.93
2022-10-11T06:59:36.891Z,5.97
2022-10-11T07:02:30.866Z,6.01
2022-10-11T07:05:17.854Z,6.07
2022-10-11T07:07:50.966Z,6.10
2022-10-11T07:10:37.870Z,6.15
2022-10-11T07:13:17.228Z,6.19
2022-10-11T07:16:04.169Z,6.26
2022-10-11T07:18:37.932Z,6.31
2022-10-11T07:21:31.884Z,6.37
2022-10-11T07:24:25.877Z,6.42
2022-10-11T07:27:19.877Z,6.48
2022-10-11T07:30:06.874Z,6.54
2022-10-11T07:32:39.963Z,6.58
2022-10-11T07:35:26.892Z,6.62
2022-10-11T07:38:06.870Z,6.67
2022-10-11T07:41:00.890Z,6.72
2022-10-11T07:43:55.887Z,6.78
2022-10-11T07:46:42.900Z,6.85
2022-10-11T07:49:15.976Z,6.92
2022-10-11T07:52:02.897Z,6.98
2022-10-11T07:54:42.907Z,7.02
2022-10-11T07:57:36.882Z,7.07
2022-10-11T08:00:23.979Z,7.14
2022-10-11T08:02:56.947Z,7.19
2022-10-11T08:05:44.916Z,7.25
2022-10-11T08:09:20.904Z,7.31
2022-10-11T08:12:14.922Z,7.40
2022-10-11T08:15:02.891Z,7.45
2022-10-11T08:17:42.881Z,7.49
2022-10-11T08:20:37.907Z,7.57
2022-10-11T08:23:32.885Z,7.60
2022-10-11T08:26:20.923Z,7.65
2022-10-11T08:29:00.980Z,7.70
2022-10-11T08:31:54.912Z,7.77
2022-10-11T08:34:41.907Z,7.84
2022-10-11T08:37:21.912Z,7.92
2022-10-11T08:40:15.909Z,7.99
2022-10-11T08:43:10.901Z,8.07
2022-10-11T08:46:04.314Z,8.16
2022-10-11T08:49:00.892Z,8.28
2022-10-11T08:51:54.975Z,8.40
2022-10-11T08:54:49.038Z,8.50
2022-10-11T08:57:38.975Z,8.55
2022-10-11T09:00:22.081Z,8.64
2022-10-11T09:03:53.945Z,8.72
2022-10-11T09:06:36.922Z,8.76
2022-10-11T09:09:51.942Z,8.81
2022-10-11T09:13:00.925Z,8.85
2022-10-11T09:16:19.906Z,8.89
2022-10-11T09:19:38.015Z,8.94
2022-10-11T09:22:50.914Z,9.00
2022-10-11T09:25:42.923Z,9.08
2022-10-11T09:29:00.175Z,9.18
2022-10-11T09:31:52.947Z,9.25
2022-10-11T09:34:32.365Z,9.29
2022-10-11T09:37:27.926Z,9.38
2022-10-11T09:40:13.029Z,9.49
2022-10-11T09:42:59.944Z,9.58
2022-10-11T09:45:39.938Z,9.67
2022-10-11T09:48:30.936Z,9.77
2022-10-11T09:51:11.020Z,9.82
2022-10-11T09:54:06.946Z,9.88
2022-10-11T09:56:47.009Z,9.95
2022-10-11T09:59:39.946Z,10.00
2022-10-11T10:02:27.099Z,10.09
2022-10-11T10:05:16.941Z,10.13
2022-10-11T10:08:33.981Z,10.18
2022-10-11T10:11:28.952Z,10.23
2022-10-11T10:14:26.951Z,10.27
2022-10-11T10:17:11.038Z,10.31
2022-10-11T10:20:02.942Z,10.36
2022-10-11T10:22:42.045Z,10.38
2022-10-11T10:25:39.608Z,10.40
2022-10-11T10:28:34.173Z,10.41
2022-10-11T10:31:28.953Z,10.43
2022-10-11T10:34:04.025Z,10.47
2022-10-11T10:36:59.022Z,10.48
2022-10-11T10:39:51.089Z,10.51
2022-10-11T10:42:37.960Z,10.55
2022-10-11T10:45:21.947Z,10.60
2022-10-11T10:48:22.000Z,10.64
2022-10-11T10:51:24.951Z,10.65
2022-10-11T10:54:17.048Z,10.70
2022-10-11T10:57:08.976Z,10.74
2022-10-11T10:59:48.188Z,10.75
2022-10-11T11:02:41.318Z,10.78
2022-10-11T11:05:27.988Z,10.80
2022-10-11T11:08:40.999Z,10.82
2022-10-11T11:11:48.987Z,10.86
2022-10-11T11:14:37.074Z,10.89
2022-10-11T11:17:41.982Z,10.95
2022-10-11T11:20:53.000Z,10.98
2022-10-11T11:23:54.973Z,11.03
2022-10-11T11:26:58.003Z,11.06
2022-10-11T11:30:10.148Z,11.11
2022-10-11T11:32:56.973Z,11.18
2022-10-11T11:35:46.001Z,11.20
2022-10-11T11:38:44.977Z,11.24
2022-10-11T11:41:35.000Z,11.28
2022-10-11T11:44:30.996Z,11.32
2022-10-11T11:47:25.846Z,11.35
2022-10-11T11:50:31.565Z,11.41
2022-10-11T11:53:57.001Z,11.43
2022-10-11T11:57:12.989Z,11.51
2022-10-11T12:00:04.013Z,11.54
2022-10-11T12:03:06.005Z,11.54
2022-10-11T12:05:59.244Z,11.53
2022-10-11T12:08:48.059Z,11.55
2022-10-11T12:11:35.999Z,11.59
2022-10-11T12:14:24.979Z,11.62
2022-10-11T12:17:19.999Z,11.63
2022-10-11T12:20:26.040Z,11.65
2022-10-11T12:23:08.011Z,11.66
2022-10-11T12:25:57.020Z,11.70
2022-10-11T12:28:49.090Z,11.75
2022-10-11T12:31:45.999Z,11.77
2022-10-11T12:34:43.012Z,11.80
2022-10-11T12:37:33.072Z,11.82
2022-10-11T12:40:44.027Z,11.86
2022-10-11T12:43:36.330Z,11.87
2022-10-11T12:46:39.012Z,11.86
2022-10-11T12:49:44.013Z,11.88
2022-10-11T12:52:17.575Z,11.88
2022-10-11T12:55:13.028Z,11.88
2022-10-11T12:58:30.042Z,11.85
2022-10-11T13:01:10.187Z,11.84
2022-10-11T13:03:56.033Z,11.83
2022-10-11T13:06:48.032Z,11.81
2022-10-11T13:09:40.029Z,11.79
2022-10-11T13:12:24.125Z,11.78
2022-10-11T13:15:14.044Z,11.76
2022-10-11T13:17:54.312Z,11.75
2022-10-11T13:20:42.529Z,11.70
2022-10-11T13:23:49.026Z,11.70
2022-10-11T13:26:45.037Z,11.69
2022-10-11T13:29:46.025Z,11.66
2022-10-11T13:32:43.035Z,11.67
2022-10-11T13:35:43.060Z,11.66
2022-10-11T13:38:33.566Z,11.66
2022-10-11T13:41:20.041Z,11.66
2022-10-11T13:43:53.432Z,11.67
2022-10-11T13:46:41.823Z,11.68
2022-10-11T13:49:40.179Z,11.77
2022-10-11T13:52:31.071Z,11.80
2022-10-11T13:55:18.048Z,11.82
2022-10-11T13:58:07.093Z,11.79
2022-10-11T14:00:51.046Z,11.98
2022-10-11T14:04:15.075Z,12.22
2022-10-11T14:07:08.050Z,12.44
2022-10-11T14:09:45.137Z,12.38
2022-10-11T14:12:46.064Z,12.27
2022-10-11T14:15:50.051Z,12.18
2022-10-11T14:19:03.060Z,12.08
2022-10-11T14:21:58.050Z,12.02
2022-10-11T14:24:52.318Z,11.94
2022-10-11T14:27:39.074Z,11.90
2022-10-11T14:30:30.430Z,12.10
2022-10-11T14:33:18.061Z,12.04
2022-10-11T14:35:51.149Z,12.01
2022-10-11T14:38:38.101Z,12.03
2022-10-11T14:41:18.062Z,12.22
2022-10-11T14:44:12.089Z,12.16
2022-10-11T14:47:04.065Z,12.07
2022-10-11T14:49:46.076Z,12.05
2022-10-11T14:52:33.071Z,11.98
2022-10-11T14:55:13.108Z,11.95
2022-10-11T14:58:00.094Z,12.02
2022-10-11T15:00:36.414Z,12.01
2022-10-11T15:03:26.132Z,11.96
2022-10-11T15:05:59.248Z,11.93
2022-10-11T15:08:46.095Z,11.88
2022-10-11T15:11:22.169Z,11.84
2022-10-11T15:14:09.079Z,11.80
2022-10-11T15:16:50.089Z,11.76
2022-10-11T15:19:44.070Z,11.73
2022-10-11T15:22:38.123Z,11.69
2022-10-11T15:25:32.088Z,11.66
2022-10-11T15:28:36.204Z,11.62
2022-10-11T15:31:09.249Z,11.60
2022-10-11T15:33:56.080Z,11.57
2022-10-11T15:36:36.114Z,11.56
2022-10-11T15:39:35.075Z,11.53
2022-10-11T15:42:08.176Z,11.53
2022-10-11T15:44:55.108Z,11.50
2022-10-11T15:47:28.273Z,11.50
2022-10-11T15:50:22.114Z,11.48
2022-10-11T15:52:56.179Z,11.46
2022-10-11T15:55:46.138Z,11.46
2022-10-11T15:58:21.182Z,11.42
2022-10-11T16:01:13.174Z,11.40
2022-10-11T16:03:46.190Z,11.39
2022-10-11T16:06:34.106Z,11.38
2022-10-11T16:09:07.285Z,11.38
2022-10-11T16:11:54.112Z,11.36
2022-10-11T16:14:28.322Z,11.34
2022-10-11T16:17:15.126Z,11.32
2022-10-11T16:19:51.259Z,11.30
2022-10-11T16:22:45.138Z,11.27
2022-10-11T16:25:32.117Z,11.25
2022-10-11T16:28:12.169Z,11.24
2022-10-11T16:30:59.122Z,11.23
2022-10-11T16:33:39.145Z,11.23
2022-10-11T16:36:38.112Z,11.22
2022-10-11T16:39:20.627Z,11.22
2022-10-11T16:42:07.116Z,11.20
2022-10-11T16:44:40.280Z,11.19
2022-10-11T16:47:28.611Z,11.18
2022-10-11T16:50:02.198Z,11.16
2022-10-11T16:52:49.143Z,11.14
2022-10-11T16:55:22.280Z,11.13
2022-10-11T16:58:09.145Z,11.13
2022-10-11T17:00:49.182Z,11.14
2022-10-11T17:03:36.142Z,11.16
2022-10-11T17:06:17.156Z,11.18
2022-10-11T17:09:11.132Z,11.20
2022-10-11T17:12:05.180Z,11.19
2022-10-11T17:14:52.182Z,11.20
2022-10-11T17:17:33.140Z,11.20
2022-10-11T17:20:27.144Z,11.20
2022-10-11T17:23:21.161Z,11.20
2022-10-11T17:26:20.187Z,11.19
2022-10-11T17:29:14.137Z,11.17
2022-10-11T17:32:08.171Z,11.15
2022-10-11T17:34:55.155Z,11.14
2022-10-11T17:37:28.217Z,11.15
2022-10-11T17:40:16.157Z,11.12
2022-10-11T17:42:56.147Z,11.12
2022-10-11T17:45:43.178Z,11.10
2022-10-11T17:48:23.149Z,11.10
2022-10-11T17:51:18.192Z,11.08
2022-10-11T17:53:53.250Z,11.05
2022-10-11T17:56:40.164Z,11.03
2022-10-11T17:59:15.676Z,11.03
2022-10-11T18:02:02.152Z,11.00
2022-10-11T18:04:35.374Z,10.97
2022-10-11T18:07:22.189Z,10.94
2022-10-11T18:09:56.433Z,10.92
2022-10-11T18:12:43.174Z,10.87
2022-10-11T18:15:16.271Z,10.87
2022-10-11T18:18:06.197Z,10.87
2022-10-11T18:20:47.190Z,10.87
2022-10-11T18:23:42.190Z,10.87
2022-10-11T18:26:30.949Z,10.85
2022-10-11T18:29:12.173Z,10.83
2022-10-11T18:32:06.176Z,10.82
2022-10-11T18:34:54.222Z,10.82
2022-10-11T18:37:27.347Z,10.82
2022-10-11T18:40:14.181Z,10.82
2022-10-11T18:42:47.263Z,10.82
2022-10-11T18:45:34.212Z,10.79
2022-10-11T18:48:08.705Z,10.78
2022-10-11T18:50:56.189Z,10.75
2022-10-11T18:53:29.266Z,10.71
2022-10-11T18:56:18.213Z,10.68
2022-10-11T18:58:58.211Z,10.66
2022-10-11T19:01:47.218Z,10.63
2022-10-11T19:04:28.197Z,10.60
2022-10-11T19:07:15.294Z,10.57
2022-10-11T19:09:48.359Z,10.55
2022-10-11T19:12:35.275Z,10.48
2022-10-11T19:15:08.274Z,10.42
2022-10-11T19:17:55.258Z,10.37
2022-10-11T19:20:28.325Z,10.32
2022-10-11T19:23:16.609Z,10.25
2022-10-11T19:25:49.295Z,10.21
2022-10-11T19:28:37.316Z,10.13
2022-10-11T19:31:13.354Z,10.05
2022-10-11T19:34:01.199Z,9.97
2022-10-11T19:36:36.889Z,9.89
2022-10-11T19:39:25.191Z,9.80
2022-10-11T19:42:05.261Z,9.73
2022-10-11T19:44:59.258Z,9.67
2022-10-11T19:47:46.202Z,9.61
2022-10-11T19:50:19.464Z,9.56
2022-10-11T19:53:06.219Z,9.53
2022-10-11T19:55:46.335Z,9.46
2022-10-11T19:58:33.257Z,9.38
2022-10-11T20:01:23.414Z,9.30
2022-10-11T20:04:33.203Z,9.23
2022-10-11T20:07:13.256Z,9.16
2022-10-11T20:10:00.220Z,9.12
2022-10-11T20:12:45.060Z,9.05
2022-10-11T20:15:32.229Z,8.99
2022-10-11T20:18:12.235Z,8.91
2022-10-11T20:21:07.259Z,8.84
2022-10-11T20:23:55.264Z,8.80
2022-10-11T20:26:30.398Z,8.70
2022-10-11T20:29:17.258Z,8.68
2022-10-11T20:31:50.430Z,8.67
2022-10-11T20:34:37.258Z,8.67
2022-10-11T20:37:17.257Z,8.69
2022-10-11T20:40:11.262Z,8.69
2022-10-11T20:42:58.289Z,8.72
2022-10-11T20:45:31.348Z,8.75
2022-10-11T20:48:18.281Z,8.75
2022-10-11T20:50:51.393Z,8.76
2022-10-11T20:53:38.288Z,8.79
2022-10-11T20:56:14.383Z,8.77
2022-10-11T20:59:04.302Z,8.77
2022-10-11T21:01:40.655Z,8.81
2022-10-11T21:04:27.260Z,8.81
2022-10-11T21:07:00.365Z,8.85
2022-10-11T21:09:47.259Z,8.86
2022-10-11T21:12:27.261Z,8.89
2022-10-11T21:15:14.293Z,8.90
2022-10-11T21:17:54.287Z,8.89
2022-10-11T21:20:55.083Z,8.93
2022-10-11T21:23:49.257Z,8.96
2022-10-11T21:26:37.268Z,8.96
2022-10-11T21:29:10.387Z,8.97
2022-10-11T21:31:57.266Z,8.95
2022-10-11T21:34:30.364Z,8.95
2022-10-11T21:37:17.262Z,8.93
2022-10-11T21:39:57.278Z,8.93
2022-10-11T21:42:51.268Z,8.92
2022-10-11T21:45:38.333Z,8.89
2022-10-11T21:48:11.445Z,8.86
2022-10-11T21:51:00.345Z,8.80
2022-10-11T21:53:33.393Z,8.73
2022-10-11T21:56:20.401Z,8.71
2022-10-11T21:58:54.586Z,8.68
2022-10-11T22:01:43.327Z,8.65
2022-10-11T22:04:17.356Z,8.58
2022-10-11T22:07:04.344Z,8.51
2022-10-11T22:09:37.403Z,8.47
2022-10-11T22:12:24.338Z,8.42
2022-10-11T22:14:59.113Z,8.38
2022-10-11T22:17:46.318Z,8.30
2022-10-11T22:20:19.398Z,8.26
2022-10-11T22:23:13.280Z,8.22
2022-10-11T22:26:08.439Z,8.14
2022-10-11T22:28:55.295Z,8.04
2022-10-11T22:31:29.488Z,7.98
2022-10-11T22:34:16.323Z,7.94
2022-10-11T22:36:59.018Z,7.92
2022-10-11T22:39:54.328Z,7.92
2022-10-11T22:42:51.004Z,7.91
2022-10-11T22:45:37.289Z,7.89
2022-10-11T22:48:17.293Z,7.82
2022-10-11T22:51:04.341Z,7.78
2022-10-11T22:53:37.396Z,7.72
2022-10-11T22:56:24.336Z,7.69
2022-10-11T22:58:57.396Z,7.66
2022-10-11T23:01:44.338Z,7.60
2022-10-11T23:04:24.344Z,7.56
2022-10-11T23:07:18.325Z,7.50
2022-10-11T23:10:05.362Z,7.49
2022-10-11T23:12:38.462Z,7.46
2022-10-11T23:15:25.353Z,7.41
2022-10-11T23:17:58.411Z,7.38
2022-10-11T23:20:46.333Z,7.37
2022-10-11T23:23:21.727Z,7.36
2022-10-11T23:26:13.356Z,7.28
2022-10-11T23:28:47.435Z,7.26
2022-10-11T23:31:34.377Z,7.21
2022-10-11T23:34:14.362Z,7.14
2022-10-11T23:37:01.355Z,7.09
2022-10-11T23:39:35.402Z,7.09
2022-10-11T23:42:22.367Z,7.06
2022-10-11T23:44:57.720Z,7.02
2022-10-11T23:47:44.342Z,7.02
2022-10-11T23:50:19.460Z,7.04
2022-10-11T23:53:06.335Z,7.04
2022-10-11T23:55:46.377Z,7.03
2022-10-11T23:58:33.360Z,7.03
